Waterford, California
Current Conditions -  °F | °C
As of 12:29 PM on Sunday 25 Jan 2015 (Local Time) from KMOD Reporting Station
Haze Haze  
Wind Chill: 47°   Ceiling: 800
Heat Index: 47°   Visibility: 2.5mi
Dew Point: 42°   Wind: 0mph
Humidity: 83%   Direction: NA
Pressure: 30.14"   Gusts: NA
Location:  37.64°N, 120.76°W
Report Text: KMOD 252029Z 00000KT 2 1/2SM HZ OVC008 08/06 A3014 RMK AO2 T00830056
Loading
Personal Weather Stations






























Interactive Weather Map New forecast layout! Learn more

10-Day Weather Forecast

Advertisements
Track Severe Weather on mobile